Time;durP1;ratioP1;P1;durP2;ratioP2;P2;SDS_P1;SDS_P2;PMS_P1;PMS_P2;Temp;Humidity;BMP_temperature;BMP_pressure;BME280_temperature;BME280_humidity;BME280_pressure;Samples;Min_cycle;Max_cycle;Signal;HPM_P1;HPM_P2
2023/07/24 00:01:17;;;;;;;3.28;2.67;;;;;;;;;;5001640;28;20204;-68
2023/07/24 00:03:44;;;;;;;2.78;2.50;;;;;;;;;;5001121;28;20208;-68
2023/07/24 00:06:11;;;;;;;3.33;2.45;;;;;;;;;;5001444;28;20273;-67
2023/07/24 00:08:39;;;;;;;2.55;2.35;;;;;;;;;;5003435;28;20205;-67
2023/07/24 00:11:10;;;;;;;4.18;2.67;;;;;;;;;;4997337;28;20276;-67
2023/07/24 00:13:37;;;;;;;2.85;2.22;;;;;;;;;;4997958;28;20247;-68
2023/07/24 00:16:07;;;;;;;5.10;2.30;;;;;;;;;;5001845;28;20212;-68
2023/07/24 00:18:34;;;;;;;3.13;2.47;;;;;;;;;;4999298;28;20231;-68
2023/07/24 00:21:02;;;;;;;2.50;2.30;;;;;;;;;;5002839;28;20209;-68
2023/07/24 00:23:29;;;;;;;3.75;2.38;;;;;;;;;;5000807;28;20215;-68
2023/07/24 00:25:56;;;;;;;2.83;2.58;;;;;;;;;;5003883;28;20301;-68
2023/07/24 00:28:24;;;;;;;2.38;2.17;;;;;;;;;;5001584;28;20208;-68
2023/07/24 00:30:52;;;;;;;2.83;2.63;;;;;;;;;;4993959;28;20205;-67
2023/07/24 00:33:19;;;;;;;2.60;2.40;;;;;;;;;;5000261;28;20208;-67
2023/07/24 00:35:46;;;;;;;4.25;2.50;;;;;;;;;;4999190;28;20205;-68
2023/07/24 00:38:13;;;;;;;2.70;2.50;;;;;;;;;;4998032;28;20220;-67
2023/07/24 00:40:40;;;;;;;2.58;2.38;;;;;;;;;;5002488;28;20227;-67
2023/07/24 00:43:08;;;;;;;3.13;2.83;;;;;;;;;;5002089;28;20212;-67
2023/07/24 00:45:37;;;;;;;2.78;2.58;;;;;;;;;;4998163;28;20236;-68
2023/07/24 00:48:04;;;;;;;2.63;2.42;;;;;;;;;;4999278;28;20259;-67
2023/07/24 00:50:31;;;;;;;3.00;2.67;;;;;;;;;;4996223;28;20210;-68
2023/07/24 00:52:59;;;;;;;4.18;2.90;;;;;;;;;;4997001;28;20201;-67
2023/07/24 00:55:26;;;;;;;3.40;3.10;;;;;;;;;;5005808;28;20213;-67
2023/07/24 00:57:53;;;;;;;6.43;3.30;;;;;;;;;;5003040;28;20228;-67
2023/07/24 01:00:20;;;;;;;3.58;2.70;;;;;;;;;;5006940;28;20205;-70
2023/07/24 01:02:49;;;;;;;3.83;2.80;;;;;;;;;;5001809;28;20221;-71
2023/07/24 01:05:18;;;;;;;3.50;2.60;;;;;;;;;;5004850;28;20210;-70
2023/07/24 01:07:45;;;;;;;3.65;3.00;;;;;;;;;;5002403;28;20213;-70
2023/07/24 01:10:12;;;;;;;3.05;2.75;;;;;;;;;;5005327;28;20268;-70
2023/07/24 01:12:44;;;;;;;3.00;2.80;;;;;;;;;;5005098;28;20232;-70
2023/07/24 01:15:15;;;;;;;3.80;2.50;;;;;;;;;;5004692;28;20208;-70
2023/07/24 01:17:47;;;;;;;2.88;2.65;;;;;;;;;;5000078;28;20239;-71
2023/07/24 01:20:17;;;;;;;3.33;2.97;;;;;;;;;;4998603;28;20253;-70
2023/07/24 01:22:50;;;;;;;2.95;2.65;;;;;;;;;;4998537;28;20209;-70
2023/07/24 01:25:20;;;;;;;6.25;2.85;;;;;;;;;;5009464;28;20200;-71
2023/07/24 01:27:48;;;;;;;3.05;2.75;;;;;;;;;;5003750;28;20211;-70
2023/07/24 01:30:18;;;;;;;3.58;2.80;;;;;;;;;;5002808;28;20288;-70
2023/07/24 01:32:45;;;;;;;3.22;2.70;;;;;;;;;;5007140;28;20210;-71
2023/07/24 01:35:13;;;;;;;3.00;2.80;;;;;;;;;;5006337;28;20205;-70
2023/07/24 01:37:41;;;;;;;3.22;2.92;;;;;;;;;;4999053;28;20201;-70
2023/07/24 01:40:09;;;;;;;3.15;2.95;;;;;;;;;;5007944;28;20201;-70
2023/07/24 01:42:36;;;;;;;3.30;2.80;;;;;;;;;;5000275;28;20205;-71
2023/07/24 01:45:05;;;;;;;4.43;3.10;;;;;;;;;;5004871;28;20367;-70
2023/07/24 01:47:33;;;;;;;4.22;2.67;;;;;;;;;;5010117;28;20204;-70
2023/07/24 01:50:00;;;;;;;4.10;2.88;;;;;;;;;;5001939;28;20201;-70
2023/07/24 01:52:27;;;;;;;4.97;2.95;;;;;;;;;;5003166;28;20205;-70
2023/07/24 01:54:54;;;;;;;4.10;3.30;;;;;;;;;;5002918;28;20213;-71
2023/07/24 01:57:21;;;;;;;4.53;3.13;;;;;;;;;;5004284;28;20205;-70
2023/07/24 01:59:48;;;;;;;3.88;3.47;;;;;;;;;;5004703;28;20229;-71
2023/07/24 02:02:17;;;;;;;5.47;3.00;;;;;;;;;;5005418;28;20210;-70
2023/07/24 02:04:44;;;;;;;3.17;2.88;;;;;;;;;;5010845;28;20209;-70
2023/07/24 02:07:11;;;;;;;2.97;2.78;;;;;;;;;;5003514;28;20209;-70
2023/07/24 02:09:39;;;;;;;2.95;2.75;;;;;;;;;;5003996;28;20208;-70
2023/07/24 02:12:06;;;;;;;3.50;2.67;;;;;;;;;;5004939;28;20208;-70
2023/07/24 02:14:34;;;;;;;3.55;2.60;;;;;;;;;;5002813;28;20213;-70
2023/07/24 02:17:01;;;;;;;4.20;2.70;;;;;;;;;;5004946;28;20201;-70
2023/07/24 02:19:29;;;;;;;3.63;2.65;;;;;;;;;;5005152;28;20229;-70
2023/07/24 02:21:56;;;;;;;3.88;2.72;;;;;;;;;;5005586;28;20201;-70
2023/07/24 02:24:24;;;;;;;2.92;2.63;;;;;;;;;;5001219;28;20209;-70
2023/07/24 02:26:51;;;;;;;3.20;2.90;;;;;;;;;;4996168;28;20208;-70
2023/07/24 02:29:18;;;;;;;3.10;2.90;;;;;;;;;;5000395;28;20208;-70
2023/07/24 02:31:46;;;;;;;3.95;2.88;;;;;;;;;;5003702;28;20263;-70
2023/07/24 02:34:13;;;;;;;4.07;2.80;;;;;;;;;;5003135;28;20203;-70
2023/07/24 02:36:41;;;;;;;3.42;2.88;;;;;;;;;;4999684;28;20231;-70
2023/07/24 02:39:08;;;;;;;3.90;3.10;;;;;;;;;;4999322;28;20232;-70
2023/07/24 02:41:36;;;;;;;3.67;2.85;;;;;;;;;;5004593;28;20205;-70
2023/07/24 02:44:04;;;;;;;3.10;2.80;;;;;;;;;;4998293;28;20210;-70
2023/07/24 02:46:31;;;;;;;2.83;2.63;;;;;;;;;;4999728;28;20229;-70
2023/07/24 02:48:58;;;;;;;3.65;2.70;;;;;;;;;;5004048;28;20206;-70
2023/07/24 02:51:25;;;;;;;2.72;2.53;;;;;;;;;;4999121;28;20212;-70
2023/07/24 02:53:55;;;;;;;3.10;2.80;;;;;;;;;;5002730;28;20204;-70
2023/07/24 02:56:22;;;;;;;3.30;2.63;;;;;;;;;;5002462;28;20202;-70
2023/07/24 02:58:49;;;;;;;2.97;2.78;;;;;;;;;;4999365;28;20227;-70
2023/07/24 03:01:17;;;;;;;2.97;2.78;;;;;;;;;;5003791;28;20201;-70
2023/07/24 03:03:44;;;;;;;3.30;3.10;;;;;;;;;;5000229;28;20236;-70
2023/07/24 03:06:11;;;;;;;4.00;3.28;;;;;;;;;;5001954;28;20200;-70
2023/07/24 03:08:38;;;;;;;3.20;2.90;;;;;;;;;;4998497;28;20217;-70
2023/07/24 03:11:07;;;;;;;3.22;2.92;;;;;;;;;;5007300;28;20200;-71
2023/07/24 03:13:35;;;;;;;3.55;3.15;;;;;;;;;;4999971;28;20213;-70
2023/07/24 03:16:02;;;;;;;4.47;3.20;;;;;;;;;;5001687;28;20205;-70
2023/07/24 03:18:29;;;;;;;3.85;2.83;;;;;;;;;;5001909;28;20268;-71
2023/07/24 03:20:58;;;;;;;4.70;3.28;;;;;;;;;;5007775;28;20212;-71
2023/07/24 03:23:26;;;;;;;3.70;3.15;;;;;;;;;;5002188;28;20213;-70
2023/07/24 03:25:53;;;;;;;3.17;2.70;;;;;;;;;;5003576;28;20292;-70
2023/07/24 03:28:22;;;;;;;5.50;3.40;;;;;;;;;;5001577;28;20247;-70
2023/07/24 03:30:49;;;;;;;4.25;3.10;;;;;;;;;;5004006;28;20204;-70
2023/07/24 03:33:17;;;;;;;3.70;3.05;;;;;;;;;;5011972;28;20218;-70
2023/07/24 03:35:44;;;;;;;3.20;2.90;;;;;;;;;;5004085;28;20213;-70
2023/07/24 03:38:12;;;;;;;4.45;3.00;;;;;;;;;;5002602;28;20197;-70
2023/07/24 03:40:39;;;;;;;3.33;3.03;;;;;;;;;;4998545;28;20225;-70
2023/07/24 03:43:06;;;;;;;3.40;2.90;;;;;;;;;;5006176;28;20204;-71
2023/07/24 03:45:34;;;;;;;3.65;3.35;;;;;;;;;;5001127;28;20239;-70
2023/07/24 03:48:02;;;;;;;4.18;3.53;;;;;;;;;;5001767;28;20197;-70
2023/07/24 03:50:30;;;;;;;3.22;2.92;;;;;;;;;;5005802;28;20205;-70
2023/07/24 03:52:57;;;;;;;4.57;3.35;;;;;;;;;;4999074;28;20205;-71
2023/07/24 03:55:25;;;;;;;4.50;4.10;;;;;;;;;;5001259;28;20197;-70
2023/07/24 03:57:52;;;;;;;5.05;3.90;;;;;;;;;;4998383;28;20207;-71
2023/07/24 04:00:19;;;;;;;4.35;3.55;;;;;;;;;;5002639;28;20232;-71
2023/07/24 04:02:48;;;;;;;4.03;3.20;;;;;;;;;;5004271;28;20204;-71
2023/07/24 04:05:15;;;;;;;3.65;3.35;;;;;;;;;;5003743;28;20201;-70
2023/07/24 04:07:42;;;;;;;4.88;3.55;;;;;;;;;;5010257;28;20209;-71
2023/07/24 04:10:10;;;;;;;4.35;3.20;;;;;;;;;;5005647;28;20201;-70
2023/07/24 04:12:37;;;;;;;5.47;3.38;;;;;;;;;;5005959;28;20212;-70
2023/07/24 04:15:04;;;;;;;5.13;3.55;;;;;;;;;;5003580;28;20201;-70
2023/07/24 04:17:32;;;;;;;5.28;3.05;;;;;;;;;;5003918;28;20276;-70
2023/07/24 04:20:01;;;;;;;4.10;3.70;;;;;;;;;;5002201;28;20224;-71
2023/07/24 04:22:28;;;;;;;5.30;3.40;;;;;;;;;;5005384;28;20214;-71
2023/07/24 04:24:55;;;;;;;5.53;3.78;;;;;;;;;;5001262;28;20221;-70
2023/07/24 04:27:22;;;;;;;5.70;3.13;;;;;;;;;;5000365;28;20212;-71
2023/07/24 04:29:49;;;;;;;4.07;3.22;;;;;;;;;;4998845;28;20215;-70
2023/07/24 04:32:17;;;;;;;4.15;3.47;;;;;;;;;;5003151;28;20204;-70
2023/07/24 04:34:44;;;;;;;4.57;3.22;;;;;;;;;;5000176;28;20211;-69
2023/07/24 04:37:12;;;;;;;4.25;3.35;;;;;;;;;;4997618;28;20292;-70
2023/07/24 04:39:40;;;;;;;4.10;3.10;;;;;;;;;;5007365;28;20228;-70
2023/07/24 04:42:07;;;;;;;4.60;3.38;;;;;;;;;;5004657;28;20201;-70
2023/07/24 04:44:34;;;;;;;4.07;3.40;;;;;;;;;;4999017;28;20213;-70
2023/07/24 04:47:02;;;;;;;8.60;3.50;;;;;;;;;;5005049;28;20254;-70
2023/07/24 04:49:30;;;;;;;5.65;3.13;;;;;;;;;;4999947;28;20209;-70
2023/07/24 04:51:57;;;;;;;3.65;3.05;;;;;;;;;;4999539;28;20205;-69
2023/07/24 04:54:26;;;;;;;3.90;2.88;;;;;;;;;;5001486;28;20202;-70
2023/07/24 04:56:53;;;;;;;3.40;3.08;;;;;;;;;;5001871;28;20201;-70
2023/07/24 04:59:20;;;;;;;3.75;2.97;;;;;;;;;;5001542;28;20228;-70
2023/07/24 05:01:47;;;;;;;4.05;3.10;;;;;;;;;;4998023;28;20200;-69
2023/07/24 05:04:15;;;;;;;3.38;2.92;;;;;;;;;;4999897;28;20205;-70
2023/07/24 05:06:42;;;;;;;4.00;3.10;;;;;;;;;;5002792;28;20213;-70
2023/07/24 05:09:09;;;;;;;5.90;3.28;;;;;;;;;;5000311;28;20205;-70
2023/07/24 05:11:37;;;;;;;5.55;3.28;;;;;;;;;;5000568;28;20217;-70
2023/07/24 05:14:05;;;;;;;3.40;3.10;;;;;;;;;;4996019;28;20219;-70
2023/07/24 05:16:32;;;;;;;6.85;3.22;;;;;;;;;;5002796;28;20209;-70
2023/07/24 05:18:59;;;;;;;3.42;2.92;;;;;;;;;;5002425;28;20209;-70
2023/07/24 05:21:26;;;;;;;3.33;3.03;;;;;;;;;;5001768;28;20201;-70
2023/07/24 05:23:53;;;;;;;3.55;3.25;;;;;;;;;;5000626;28;20205;-70
2023/07/24 05:26:21;;;;;;;3.95;2.85;;;;;;;;;;5003695;28;20209;-70
2023/07/24 05:28:50;;;;;;;3.50;3.20;;;;;;;;;;5001557;28;20262;-70
2023/07/24 05:31:17;;;;;;;5.15;3.38;;;;;;;;;;4997668;28;20297;-70
2023/07/24 05:33:44;;;;;;;3.92;3.30;;;;;;;;;;5000806;28;20208;-70
2023/07/24 05:36:12;;;;;;;3.60;3.05;;;;;;;;;;5001575;28;20214;-70
2023/07/24 05:38:39;;;;;;;3.20;2.92;;;;;;;;;;5003416;28;20210;-70
2023/07/24 05:41:06;;;;;;;3.30;2.70;;;;;;;;;;4997013;28;20220;-70
2023/07/24 05:43:33;;;;;;;3.78;3.10;;;;;;;;;;5002625;28;20209;-70
2023/07/24 05:46:02;;;;;;;3.42;3.10;;;;;;;;;;5006833;28;20240;-70
2023/07/24 05:48:29;;;;;;;5.15;3.50;;;;;;;;;;5009007;28;20205;-70
2023/07/24 05:50:56;;;;;;;3.95;3.20;;;;;;;;;;5002468;28;20289;-70
2023/07/24 05:53:23;;;;;;;4.82;3.00;;;;;;;;;;5005945;28;20220;-71
2023/07/24 05:55:59;;;;;;;5.18;2.80;;;;;;;;;;5002454;28;20205;-70
2023/07/24 05:58:26;;;;;;;4.45;3.20;;;;;;;;;;4999705;28;20216;-70
2023/07/24 06:00:54;;;;;;;4.97;2.70;;;;;;;;;;5003173;28;20236;-70
2023/07/24 06:03:23;;;;;;;4.28;3.00;;;;;;;;;;4998887;28;20205;-70
2023/07/24 06:05:57;;;;;;;4.07;3.00;;;;;;;;;;5002518;28;20221;-71
2023/07/24 06:08:24;;;;;;;3.90;3.10;;;;;;;;;;5006486;28;20251;-70
2023/07/24 06:10:52;;;;;;;7.40;3.10;;;;;;;;;;5001506;28;20209;-71
2023/07/24 06:13:19;;;;;;;7.70;2.97;;;;;;;;;;5000227;28;20207;-71
2023/07/24 06:15:48;;;;;;;8.63;3.22;;;;;;;;;;5003835;28;20227;-70
2023/07/24 06:18:15;;;;;;;5.32;3.08;;;;;;;;;;4997435;28;20205;-71
2023/07/24 06:20:44;;;;;;;5.20;3.00;;;;;;;;;;4999785;28;20228;-69
2023/07/24 06:23:11;;;;;;;6.43;3.10;;;;;;;;;;5002091;28;20212;-71
2023/07/24 06:25:38;;;;;;;3.50;3.20;;;;;;;;;;5006183;28;20206;-71
2023/07/24 06:28:05;;;;;;;4.25;3.00;;;;;;;;;;5003579;28;20200;-71
2023/07/24 06:30:32;;;;;;;3.30;3.00;;;;;;;;;;5003026;28;20206;-71
2023/07/24 06:33:00;;;;;;;3.20;2.90;;;;;;;;;;5009174;28;20212;-70
2023/07/24 06:35:27;;;;;;;3.50;2.40;;;;;;;;;;5003840;28;20212;-71
2023/07/24 06:37:55;;;;;;;3.08;2.88;;;;;;;;;;4999156;28;20202;-71
2023/07/24 06:40:22;;;;;;;3.47;3.00;;;;;;;;;;5005737;28;20228;-70
2023/07/24 06:42:50;;;;;;;4.03;3.00;;;;;;;;;;4998275;28;20208;-69
2023/07/24 06:45:17;;;;;;;3.05;2.75;;;;;;;;;;4999371;28;20245;-71
2023/07/24 06:47:44;;;;;;;3.10;2.88;;;;;;;;;;4999794;28;20212;-71
2023/07/24 06:50:11;;;;;;;4.93;3.42;;;;;;;;;;4998622;28;20208;-71
2023/07/24 06:52:40;;;;;;;3.65;3.33;;;;;;;;;;5001088;28;20229;-71
2023/07/24 06:55:09;;;;;;;3.85;3.47;;;;;;;;;;4998019;28;20209;-71
2023/07/24 06:57:36;;;;;;;3.55;3.25;;;;;;;;;;5007968;28;20287;-70
2023/07/24 07:00:03;;;;;;;4.63;3.45;;;;;;;;;;5008289;28;20221;-70
2023/07/24 07:02:30;;;;;;;3.40;3.05;;;;;;;;;;5001163;28;20205;-71
2023/07/24 07:04:58;;;;;;;4.28;3.80;;;;;;;;;;5006731;28;20214;-71
2023/07/24 07:07:25;;;;;;;4.15;3.58;;;;;;;;;;5006015;28;20205;-68
2023/07/24 07:09:52;;;;;;;4.80;3.63;;;;;;;;;;5005594;28;20240;-70
2023/07/24 07:12:21;;;;;;;4.22;3.80;;;;;;;;;;5003796;28;20205;-70
2023/07/24 07:14:48;;;;;;;5.22;4.07;;;;;;;;;;5002838;28;20219;-69
2023/07/24 07:17:15;;;;;;;4.47;4.07;;;;;;;;;;5002782;28;20204;-69
2023/07/24 07:19:42;;;;;;;4.25;3.85;;;;;;;;;;5007932;28;20201;-69
2023/07/24 07:22:09;;;;;;;6.60;4.15;;;;;;;;;;5003384;28;20217;-68
2023/07/24 07:24:37;;;;;;;4.97;4.25;;;;;;;;;;5009966;28;20219;-67
2023/07/24 07:27:04;;;;;;;5.45;4.60;;;;;;;;;;5005135;28;20258;-68
2023/07/24 07:29:33;;;;;;;5.00;4.25;;;;;;;;;;5003776;28;20216;-67
2023/07/24 07:32:00;;;;;;;4.95;4.45;;;;;;;;;;5005599;28;20404;-68
2023/07/24 07:34:27;;;;;;;5.93;4.60;;;;;;;;;;5006004;28;20265;-68
2023/07/24 07:36:54;;;;;;;4.70;4.22;;;;;;;;;;5001461;28;20205;-67
2023/07/24 07:39:22;;;;;;;4.78;4.35;;;;;;;;;;5003088;28;20217;-69
2023/07/24 07:41:49;;;;;;;6.07;5.00;;;;;;;;;;5002886;28;20229;-69
2023/07/24 07:44:16;;;;;;;5.03;4.53;;;;;;;;;;5002077;28;20205;-69
2023/07/24 07:46:44;;;;;;;5.18;4.70;;;;;;;;;;5000990;28;20243;-68
2023/07/24 07:49:12;;;;;;;8.00;5.22;;;;;;;;;;5000058;28;20215;-69
2023/07/24 07:51:39;;;;;;;5.70;4.97;;;;;;;;;;5002693;28;20205;-69
2023/07/24 07:54:06;;;;;;;5.88;4.45;;;;;;;;;;5002273;28;20216;-67
2023/07/24 07:56:33;;;;;;;6.07;5.38;;;;;;;;;;5004411;28;20205;-69
2023/07/24 07:59:00;;;;;;;6.07;4.97;;;;;;;;;;5003959;28;20292;-67
2023/07/24 08:01:27;;;;;;;5.32;4.78;;;;;;;;;;5007936;28;20351;-70
2023/07/24 08:03:56;;;;;;;8.15;5.15;;;;;;;;;;5005353;28;20205;-69
2023/07/24 08:06:24;;;;;;;6.32;5.10;;;;;;;;;;5000067;28;20256;-68
2023/07/24 08:08:51;;;;;;;8.00;4.80;;;;;;;;;;5000389;28;20891;-68
2023/07/24 08:11:18;;;;;;;7.70;5.10;;;;;;;;;;5006037;28;20244;-72
2023/07/24 08:13:46;;;;;;;7.28;4.95;;;;;;;;;;5001069;28;20205;-72
2023/07/24 08:16:18;;;;;;;6.35;5.25;;;;;;;;;;5007359;28;20219;-72
2023/07/24 08:18:45;;;;;;;10.02;5.03;;;;;;;;;;5000353;28;20213;-72
2023/07/24 08:21:14;;;;;;;6.30;5.28;;;;;;;;;;4996715;28;20225;-72
2023/07/24 08:23:41;;;;;;;5.00;4.50;;;;;;;;;;4999688;28;20208;-71
2023/07/24 08:26:09;;;;;;;5.45;4.95;;;;;;;;;;5000611;28;20216;-72
2023/07/24 08:28:36;;;;;;;5.95;5.35;;;;;;;;;;5005690;28;20220;-72
2023/07/24 08:31:03;;;;;;;6.05;4.80;;;;;;;;;;5008843;28;20246;-73
2023/07/24 08:33:30;;;;;;;7.18;5.05;;;;;;;;;;5002015;28;20292;-71
2023/07/24 08:36:01;;;;;;;8.30;5.18;;;;;;;;;;5004247;28;20213;-73
2023/07/24 08:38:30;;;;;;;5.22;4.72;;;;;;;;;;5006278;28;20263;-68
2023/07/24 08:41:04;;;;;;;6.40;4.53;;;;;;;;;;5009010;28;20212;-69
2023/07/24 08:43:32;;;;;;;4.93;4.43;;;;;;;;;;5004567;28;20227;-69
2023/07/24 08:46:00;;;;;;;7.72;4.70;;;;;;;;;;5003929;28;20233;-68
2023/07/24 08:48:28;;;;;;;5.55;4.47;;;;;;;;;;5001453;28;20209;-69
2023/07/24 08:50:55;;;;;;;4.78;4.28;;;;;;;;;;5003970;28;20284;-69
2023/07/24 08:53:23;;;;;;;5.53;4.45;;;;;;;;;;5005399;28;20243;-69
2023/07/24 08:55:54;;;;;;;5.75;4.65;;;;;;;;;;5001759;28;20204;-69
2023/07/24 08:58:22;;;;;;;4.78;3.90;;;;;;;;;;5009655;28;20215;-70
2023/07/24 09:00:51;;;;;;;6.93;4.95;;;;;;;;;;5003106;28;20229;-70
2023/07/24 09:03:18;;;;;;;5.18;4.68;;;;;;;;;;5010544;28;20204;-70
2023/07/24 09:05:45;;;;;;;6.28;4.00;;;;;;;;;;5004956;28;20209;-69
2023/07/24 09:08:13;;;;;;;5.47;3.90;;;;;;;;;;5005385;28;20220;-70
2023/07/24 09:10:40;;;;;;;4.68;3.90;;;;;;;;;;5001614;28;20197;-71
2023/07/24 09:13:08;;;;;;;4.45;4.05;;;;;;;;;;5001621;28;20205;-70
2023/07/24 09:15:42;;;;;;;4.40;3.75;;;;;;;;;;5001887;28;20207;-71
2023/07/24 09:18:09;;;;;;;4.35;3.92;;;;;;;;;;5004320;28;20212;-71
2023/07/24 09:20:41;;;;;;;4.45;4.05;;;;;;;;;;5009261;28;20235;-71
2023/07/24 09:23:09;;;;;;;5.05;3.97;;;;;;;;;;5003954;28;20209;-71
2023/07/24 09:25:36;;;;;;;3.92;3.58;;;;;;;;;;5005323;28;20196;-70
2023/07/24 09:28:11;;;;;;;4.78;3.75;;;;;;;;;;5016948;28;20204;-70
2023/07/24 09:30:39;;;;;;;4.45;3.78;;;;;;;;;;5006600;28;20202;-70
2023/07/24 09:33:06;;;;;;;4.35;3.60;;;;;;;;;;5004030;28;20299;-70
2023/07/24 09:35:33;;;;;;;5.63;4.18;;;;;;;;;;5006550;28;20212;-69
2023/07/24 09:38:05;;;;;;;5.68;4.05;;;;;;;;;;5001161;28;20201;-70
2023/07/24 09:40:40;;;;;;;5.90;3.58;;;;;;;;;;4999709;28;20213;-71
2023/07/24 09:43:17;;;;;;;6.13;3.70;;;;;;;;;;5006880;28;20227;-69
2023/07/24 09:45:44;;;;;;;3.70;3.40;;;;;;;;;;5001968;28;20275;-69
2023/07/24 09:48:14;;;;;;;6.43;3.60;;;;;;;;;;5008356;28;20258;-70
2023/07/24 09:50:41;;;;;;;3.53;3.03;;;;;;;;;;5006460;28;20209;-70
2023/07/24 09:53:12;;;;;;;6.03;3.17;;;;;;;;;;5005753;28;20285;-71
2023/07/24 09:55:48;;;;;;;3.53;3.22;;;;;;;;;;5009167;28;20200;-69
2023/07/24 09:58:17;;;;;;;5.72;3.40;;;;;;;;;;5001354;28;20208;-70
2023/07/24 10:00:45;;;;;;;3.40;3.10;;;;;;;;;;4999833;28;20232;-70
2023/07/24 10:03:12;;;;;;;5.22;3.42;;;;;;;;;;5001523;28;20209;-71
2023/07/24 10:05:40;;;;;;;3.70;3.30;;;;;;;;;;4998811;28;20206;-71
2023/07/24 10:08:07;;;;;;;5.60;3.40;;;;;;;;;;4996820;28;20295;-71
2023/07/24 10:10:34;;;;;;;4.65;3.10;;;;;;;;;;5002237;28;20235;-72
2023/07/24 10:13:02;;;;;;;4.82;3.30;;;;;;;;;;5003002;28;20211;-71
2023/07/24 10:15:31;;;;;;;3.70;3.20;;;;;;;;;;5006569;28;20218;-70
2023/07/24 10:18:03;;;;;;;3.67;3.25;;;;;;;;;;5004257;28;20204;-71
2023/07/24 10:20:34;;;;;;;4.47;3.08;;;;;;;;;;5004080;28;20226;-71
2023/07/24 10:23:02;;;;;;;3.65;2.92;;;;;;;;;;5004662;28;20211;-72
2023/07/24 10:25:33;;;;;;;3.45;3.15;;;;;;;;;;5005052;28;20209;-73
2023/07/24 10:28:07;;;;;;;4.05;2.95;;;;;;;;;;5004937;28;20198;-73
2023/07/24 10:30:36;;;;;;;3.88;3.10;;;;;;;;;;5004560;28;20210;-72
2023/07/24 10:33:10;;;;;;;3.17;2.42;;;;;;;;;;5005671;28;20205;-75
2023/07/24 10:35:39;;;;;;;2.60;2.40;;;;;;;;;;4994229;28;20232;-73
2023/07/24 10:38:06;;;;;;;2.80;2.60;;;;;;;;;;4998924;28;20288;-73
2023/07/24 10:40:34;;;;;;;6.93;2.70;;;;;;;;;;5004649;28;20229;-72
2023/07/24 10:43:01;;;;;;;8.25;2.90;;;;;;;;;;4999582;28;20228;-73
2023/07/24 10:45:39;;;;;;;6.57;2.55;;;;;;;;;;5004412;28;20244;-74
2023/07/24 10:48:11;;;;;;;3.08;2.65;;;;;;;;;;5007803;28;20200;-73
2023/07/24 10:50:38;;;;;;;7.35;2.47;;;;;;;;;;5003030;28;20208;-73
2023/07/24 10:53:06;;;;;;;4.22;2.25;;;;;;;;;;5003528;28;20205;-75
2023/07/24 10:55:33;;;;;;;2.70;2.47;;;;;;;;;;4999869;28;20300;-73
2023/07/24 10:58:00;;;;;;;4.40;2.17;;;;;;;;;;4997261;28;20216;-74
2023/07/24 11:00:27;;;;;;;2.75;2.38;;;;;;;;;;4996757;28;20216;-74
2023/07/24 11:02:55;;;;;;;5.32;2.50;;;;;;;;;;5003315;28;20239;-75
2023/07/24 11:05:24;;;;;;;4.30;2.25;;;;;;;;;;4998974;28;20212;-76
2023/07/24 11:07:51;;;;;;;10.18;3.40;;;;;;;;;;4999916;28;20229;-73
2023/07/24 11:10:19;;;;;;;16.00;3.42;;;;;;;;;;5006607;28;20208;-71
2023/07/24 11:12:46;;;;;;;3.45;2.58;;;;;;;;;;4999728;28;20205;-74
2023/07/24 11:15:14;;;;;;;3.00;2.65;;;;;;;;;;5004477;28;20212;-72
2023/07/24 11:17:42;;;;;;;2.88;2.30;;;;;;;;;;5004328;28;20205;-71
2023/07/24 11:20:10;;;;;;;3.28;2.67;;;;;;;;;;4996706;28;20201;-71
2023/07/24 11:22:39;;;;;;;3.05;2.60;;;;;;;;;;5000665;28;20225;-72
2023/07/24 11:25:06;;;;;;;3.80;2.55;;;;;;;;;;5003791;28;20205;-71
2023/07/24 11:27:33;;;;;;;3.17;2.70;;;;;;;;;;4995514;28;20205;-70
2023/07/24 11:30:01;;;;;;;4.72;2.60;;;;;;;;;;5002894;28;20212;-70
2023/07/24 11:32:28;;;;;;;3.80;2.72;;;;;;;;;;5000216;28;20200;-70
2023/07/24 11:34:55;;;;;;;3.20;2.70;;;;;;;;;;5005872;28;20211;-70
2023/07/24 11:37:22;;;;;;;4.57;2.88;;;;;;;;;;5004048;28;20198;-68
2023/07/24 11:40:04;;;;;;;3.10;2.80;;;;;;;;;;5003167;28;20208;-68
2023/07/24 11:42:31;;;;;;;3.40;3.08;;;;;;;;;;4998172;28;20232;-69
2023/07/24 11:45:02;;;;;;;3.67;2.90;;;;;;;;;;4999221;28;20197;-69
2023/07/24 11:47:30;;;;;;;4.50;3.35;;;;;;;;;;5000639;28;20197;-68
2023/07/24 11:49:58;;;;;;;3.63;3.15;;;;;;;;;;5002006;28;20213;-68
2023/07/24 11:52:26;;;;;;;6.95;3.13;;;;;;;;;;5004528;28;20201;-69
2023/07/24 11:55:03;;;;;;;4.43;3.25;;;;;;;;;;5008033;28;20205;-68
2023/07/24 11:57:30;;;;;;;3.78;3.38;;;;;;;;;;5002824;28;20209;-69
2023/07/24 11:59:58;;;;;;;3.33;3.03;;;;;;;;;;5000895;28;20209;-68
2023/07/24 12:02:27;;;;;;;5.22;3.92;;;;;;;;;;5000308;28;20223;-67
2023/07/24 12:04:58;;;;;;;7.97;4.57;;;;;;;;;;5002149;28;20201;-68
2023/07/24 12:07:30;;;;;;;9.18;4.90;;;;;;;;;;5001668;28;20216;-67
2023/07/24 12:09:57;;;;;;;3.60;3.22;;;;;;;;;;5005749;28;20216;-70
2023/07/24 12:12:26;;;;;;;3.55;3.15;;;;;;;;;;5004891;28;20200;-67
2023/07/24 12:14:53;;;;;;;2.30;2.10;;;;;;;;;;4999862;28;20205;-67
2023/07/24 12:17:20;;;;;;;2.05;1.95;;;;;;;;;;5004798;28;20201;-68
2023/07/24 12:19:48;;;;;;;2.55;2.30;;;;;;;;;;5000151;28;20205;-68
2023/07/24 12:22:15;;;;;;;5.05;2.85;;;;;;;;;;5004204;28;20224;-68
2023/07/24 12:24:43;;;;;;;2.40;2.20;;;;;;;;;;4996532;28;20196;-68
2023/07/24 12:27:10;;;;;;;2.60;2.40;;;;;;;;;;5004185;28;20205;-67
2023/07/24 12:29:38;;;;;;;2.30;2.10;;;;;;;;;;5000371;28;20217;-70
2023/07/24 12:32:06;;;;;;;2.85;2.20;;;;;;;;;;4995686;28;20201;-70
2023/07/24 12:34:33;;;;;;;2.65;2.20;;;;;;;;;;4999490;28;20218;-68
2023/07/24 12:37:00;;;;;;;2.88;2.30;;;;;;;;;;5005787;28;20213;-70
2023/07/24 12:39:27;;;;;;;3.17;1.83;;;;;;;;;;5001135;28;20205;-68
2023/07/24 12:41:54;;;;;;;2.03;1.83;;;;;;;;;;4997054;28;20247;-69
2023/07/24 12:44:22;;;;;;;2.13;1.98;;;;;;;;;;5004297;28;20201;-67
2023/07/24 12:46:50;;;;;;;2.95;1.85;;;;;;;;;;5001017;28;20228;-71
2023/07/24 12:49:17;;;;;;;1.77;1.55;;;;;;;;;;5003807;28;20220;-68
2023/07/24 12:51:44;;;;;;;2.72;1.50;;;;;;;;;;5003080;28;20204;-68
2023/07/24 12:54:11;;;;;;;1.40;1.30;;;;;;;;;;5001574;28;20197;-68
2023/07/24 12:56:39;;;;;;;1.90;1.60;;;;;;;;;;5011125;28;20201;-69
2023/07/24 12:59:06;;;;;;;1.73;1.10;;;;;;;;;;5002602;28;20212;-68
2023/07/24 13:01:33;;;;;;;1.27;1.20;;;;;;;;;;5011699;28;20213;-71
2023/07/24 13:04:01;;;;;;;1.30;1.20;;;;;;;;;;5003186;28;20225;-67
2023/07/24 13:06:29;;;;;;;1.20;1.20;;;;;;;;;;5007957;28;20235;-68
2023/07/24 13:08:56;;;;;;;1.23;1.23;;;;;;;;;;5008968;28;20213;-69
2023/07/24 13:11:23;;;;;;;3.65;1.40;;;;;;;;;;5005572;28;20209;-68
2023/07/24 13:13:50;;;;;;;1.30;1.20;;;;;;;;;;5006186;28;20208;-68
2023/07/24 13:16:18;;;;;;;1.20;1.10;;;;;;;;;;5005419;28;20205;-66
2023/07/24 13:18:45;;;;;;;1.38;1.30;;;;;;;;;;5005972;28;20209;-67
2023/07/24 13:21:13;;;;;;;1.40;1.30;;;;;;;;;;5008423;28;20234;-68
2023/07/24 13:23:41;;;;;;;1.40;1.30;;;;;;;;;;5005112;28;20260;-68
2023/07/24 13:26:10;;;;;;;1.10;1.10;;;;;;;;;;5005902;28;20215;-68
2023/07/24 13:28:37;;;;;;;2.28;1.42;;;;;;;;;;5008516;28;20229;-69
2023/07/24 13:31:12;;;;;;;1.23;1.10;;;;;;;;;;5002301;28;20209;-67
2023/07/24 13:33:40;;;;;;;2.13;1.30;;;;;;;;;;5004073;28;20247;-68
2023/07/24 13:36:07;;;;;;;1.23;1.13;;;;;;;;;;5011148;28;20209;-67
2023/07/24 13:38:35;;;;;;;1.30;1.20;;;;;;;;;;5004768;28;20205;-68
2023/07/24 13:41:04;;;;;;;1.80;1.20;;;;;;;;;;5005491;28;20212;-68
2023/07/24 13:43:31;;;;;;;1.60;1.10;;;;;;;;;;4999813;28;20260;-71
2023/07/24 13:45:58;;;;;;;4.13;1.20;;;;;;;;;;5008487;28;20320;-70
2023/07/24 13:48:26;;;;;;;1.50;1.10;;;;;;;;;;5004016;28;20209;-69
2023/07/24 13:50:53;;;;;;;1.60;1.40;;;;;;;;;;5004212;28;20209;-68
2023/07/24 13:53:20;;;;;;;2.45;1.48;;;;;;;;;;5005530;28;20198;-67
2023/07/24 13:55:49;;;;;;;1.40;1.30;;;;;;;;;;5003612;28;20210;-68
2023/07/24 13:58:16;;;;;;;1.75;1.40;;;;;;;;;;5011864;28;20196;-68
2023/07/24 14:00:43;;;;;;;1.50;1.40;;;;;;;;;;5007286;28;20205;-69
2023/07/24 14:03:10;;;;;;;1.50;1.40;;;;;;;;;;5004303;28;20304;-69
2023/07/24 14:05:38;;;;;;;1.52;1.42;;;;;;;;;;4993917;28;20216;-69
2023/07/24 14:08:05;;;;;;;1.42;1.33;;;;;;;;;;4998873;28;20303;-69
2023/07/24 14:10:32;;;;;;;1.63;1.40;;;;;;;;;;5001976;28;20209;-70
2023/07/24 14:13:01;;;;;;;1.60;1.50;;;;;;;;;;5001172;28;20208;-71
2023/07/24 14:15:28;;;;;;;1.40;1.30;;;;;;;;;;4995589;28;20212;-72
2023/07/24 14:17:55;;;;;;;2.40;1.45;;;;;;;;;;5000700;28;20334;-71
2023/07/24 14:20:23;;;;;;;1.70;1.40;;;;;;;;;;4996073;28;20206;-70
2023/07/24 14:22:50;;;;;;;1.42;1.33;;;;;;;;;;5005413;28;20218;-70
2023/07/24 14:25:17;;;;;;;1.50;1.40;;;;;;;;;;4991968;28;20201;-70
2023/07/24 14:27:44;;;;;;;2.15;1.30;;;;;;;;;;5001132;28;20205;-70
2023/07/24 14:30:13;;;;;;;1.85;1.60;;;;;;;;;;5002465;28;20205;-70
2023/07/24 14:32:40;;;;;;;2.17;1.45;;;;;;;;;;5005829;28;20209;-71
2023/07/24 14:35:08;;;;;;;2.83;1.52;;;;;;;;;;4998634;28;20202;-70
2023/07/24 14:37:35;;;;;;;1.40;1.30;;;;;;;;;;5001165;28;20213;-70
2023/07/24 14:40:02;;;;;;;1.65;1.55;;;;;;;;;;5002695;28;20209;-70
2023/07/24 14:42:29;;;;;;;5.10;1.58;;;;;;;;;;5003068;28;20229;-68
2023/07/24 14:45:01;;;;;;;3.03;1.90;;;;;;;;;;5000031;28;20271;-69
2023/07/24 14:47:30;;;;;;;1.88;1.63;;;;;;;;;;5003248;28;20206;-69